Terminal Aerodrome Forecast
Issued by NWS Binghamton, NY

Home | Current Version | Previous Version | Text Only | Print | Product List | Glossary On
Versions: 1 2 3 4 5 6 7 8 9 10 11 12 13 14 15 16 17 18 19 20 21
420
FTUS41 KBGM 282320
TAFBGM
TAF
KBGM 282320Z 2900/2924 06007KT P6SM OVC100
     FM290200 05005KT P6SM -SHRA OVC035
     FM291100 10004KT P6SM -SHRA OVC015
     FM291500 13004KT P6SM -SHRA OVC035=

USA.gov is the U.S. government's official web portal to all federal, state and local government web resources and services.